Time;durP1;ratioP1;P1;durP2;ratioP2;P2;SDS_P1;SDS_P2;PMS_P1;PMS_P2;Temp;Humidity;BMP_temperature;BMP_pressure;BME280_temperature;BME280_humidity;BME280_pressure;Samples;Min_cycle;Max_cycle;Signal;HPM_P1;HPM_P2
2023/09/03 00:01:27;;;;;;;4.50;4.00;;;15.10;54.70;;;;;;5052571;28;20242;-74
2023/09/03 00:03:54;;;;;;;4.20;3.90;;;15.00;54.10;;;;;;5039775;28;20167;-74
2023/09/03 00:06:19;;;;;;;6.50;4.20;;;15.00;53.50;;;;;;5031620;28;20401;-74
2023/09/03 00:08:46;;;;;;;5.57;4.00;;;14.90;51.80;;;;;;5032354;28;20517;-74
2023/09/03 00:11:12;;;;;;;5.33;4.70;;;14.90;52.00;;;;;;5032326;28;20214;-66
2023/09/03 00:13:37;;;;;;;4.53;4.17;;;14.80;51.80;;;;;;5044633;28;20433;-73
2023/09/03 00:16:03;;;;;;;4.30;3.80;;;14.80;54.60;;;;;;5050486;28;20409;-69
2023/09/03 00:18:29;;;;;;;4.70;3.80;;;14.80;59.60;;;;;;5052071;28;20198;-74
2023/09/03 00:21:00;;;;;;;4.03;3.73;;;14.80;61.90;;;;;;5051664;28;20167;-66
2023/09/03 00:23:27;;;;;;;3.90;3.60;;;14.80;63.60;;;;;;5053862;28;20159;-66
2023/09/03 00:25:53;;;;;;;3.50;3.30;;;14.80;66.70;;;;;;5054845;28;20405;-66
2023/09/03 00:28:19;;;;;;;7.60;3.67;;;14.80;65.70;;;;;;5053901;28;20449;-66
2023/09/03 00:30:44;;;;;;;5.60;3.60;;;14.80;67.60;;;;;;5055798;28;20409;-66
2023/09/03 00:33:10;;;;;;;6.63;4.30;;;14.70;68.60;;;;;;5054194;28;20174;-69
2023/09/03 00:35:36;;;;;;;3.30;3.00;;;14.70;70.40;;;;;;5053319;28;20190;-72
2023/09/03 00:38:01;;;;;;;5.63;4.43;;;14.70;71.90;;;;;;5055435;28;20198;-72
2023/09/03 00:40:27;;;;;;;4.50;4.10;;;14.60;74.50;;;;;;5053480;28;20174;-74
2023/09/03 00:42:53;;;;;;;4.80;3.73;;;14.60;79.10;;;;;;5055518;28;20175;-66
2023/09/03 00:45:18;;;;;;;3.83;3.43;;;14.60;82.40;;;;;;5054442;28;20175;-74
2023/09/03 00:47:44;;;;;;;4.17;3.63;;;14.60;83.10;;;;;;5054000;28;20241;-68
2023/09/03 00:50:10;;;;;;;4.60;3.53;;;14.60;89.00;;;;;;5039519;28;20190;-68
2023/09/03 00:52:37;;;;;;;3.80;3.43;;;14.60;90.90;;;;;;5035338;28;20449;-66
2023/09/03 00:55:03;;;;;;;4.27;3.87;;;14.60;90.50;;;;;;5042212;28;20956;-72
2023/09/03 00:57:29;;;;;;;4.40;4.00;;;14.60;91.10;;;;;;5055106;28;20449;-66
2023/09/03 00:59:56;;;;;;;7.00;5.67;;;14.60;93.50;;;;;;5054485;28;20404;-66
2023/09/03 01:02:23;;;;;;;16.17;10.83;;;14.60;93.60;;;;;;5055082;28;20402;-74
2023/09/03 01:04:49;;;;;;;4.40;3.97;;;14.60;93.70;;;;;;5055058;28;20914;-72
2023/09/03 01:07:16;;;;;;;4.17;3.53;;;14.60;92.90;;;;;;5051707;28;20438;-66
2023/09/03 01:09:42;;;;;;;8.50;3.93;;;14.60;93.60;;;;;;5046378;28;20609;-73
2023/09/03 01:12:35;;;;;;;4.20;3.90;;;14.60;93.70;;;;;;5035094;28;20405;-66
2023/09/03 01:15:20;;;;;;;3.80;3.57;;;14.60;93.80;;;;;;5034369;28;20448;-71
2023/09/03 01:18:03;;;;;;;5.17;3.37;;;14.50;93.70;;;;;;5033197;28;20973;-66
2023/09/03 01:20:35;;;;;;;4.23;3.93;;;14.50;93.70;;;;;;5034851;28;20449;-70
2023/09/03 01:23:27;;;;;;;5.07;3.20;;;14.60;93.80;;;;;;5049713;28;20439;-74
2023/09/03 01:26:16;;;;;;;3.87;3.57;;;14.60;93.70;;;;;;5033737;28;20402;-66
2023/09/03 01:28:42;;;;;;;4.37;3.50;;;14.50;93.70;;;;;;5034695;28;20440;-66
2023/09/03 01:31:11;;;;;;;6.10;3.70;;;14.50;93.70;;;;;;5034622;28;20890;-74
2023/09/03 01:33:40;;;;;;;4.47;4.07;;;14.50;93.70;;;;;;5034192;28;20406;-66
2023/09/03 01:36:09;;;;;;;4.20;3.90;;;14.50;93.70;;;;;;5032544;28;20426;-66
2023/09/03 01:38:36;;;;;;;3.90;3.60;;;14.50;93.70;;;;;;5033941;28;20449;-67
2023/09/03 01:41:02;;;;;;;6.23;3.23;;;14.40;93.70;;;;;;5034359;28;20414;-73
2023/09/03 01:43:28;;;;;;;3.30;3.10;;;14.40;93.60;;;;;;5034421;28;20452;-73
2023/09/03 01:45:56;;;;;;;3.83;3.47;;;14.40;93.60;;;;;;5033396;28;20950;-66
2023/09/03 01:48:51;;;;;;;3.20;3.00;;;14.40;96.20;;;;;;5033708;28;20203;-74
2023/09/03 01:51:37;;;;;;;6.07;3.80;;;14.40;98.00;;;;;;5034065;28;20497;-66
2023/09/03 01:54:18;;;;;;;5.87;3.23;;;14.40;99.40;;;;;;5033090;28;20429;-74
2023/09/03 01:56:50;;;;;;;4.17;3.37;;;14.50;99.90;;;;;;5053143;28;20492;-74
2023/09/03 01:59:19;;;;;;;3.90;3.50;;;14.40;99.90;;;;;;5053925;28;20448;-74
2023/09/03 02:01:49;;;;;;;8.60;3.50;;;14.40;99.90;;;;;;5046062;28;21057;-66
2023/09/03 02:04:15;;;;;;;4.07;3.23;;;14.40;99.90;;;;;;5033899;28;20430;-71
2023/09/03 02:06:46;;;;;;;5.67;3.70;;;14.50;99.90;;;;;;5033237;28;20438;-72
2023/09/03 02:09:12;;;;;;;4.60;3.07;;;14.40;99.90;;;;;;5033781;28;20465;-73
2023/09/03 02:11:37;;;;;;;5.53;3.70;;;14.40;99.90;;;;;;5053590;28;20802;-68
2023/09/03 02:14:03;;;;;;;3.93;3.60;;;14.40;99.90;;;;;;5053115;28;20190;-73
2023/09/03 02:16:29;;;;;;;3.70;3.27;;;14.50;99.90;;;;;;5052765;28;20538;-68
2023/09/03 02:18:54;;;;;;;7.13;3.77;;;14.40;99.90;;;;;;5040467;28;20207;-70
2023/09/03 02:21:20;;;;;;;4.87;3.80;;;14.40;99.90;;;;;;5033743;28;20168;-65
2023/09/03 02:23:46;;;;;;;11.50;4.13;;;14.40;99.90;;;;;;5033661;28;20489;-66
2023/09/03 02:26:12;;;;;;;5.40;3.40;;;14.40;99.90;;;;;;5047407;28;20228;-66
2023/09/03 02:28:38;;;;;;;4.00;3.60;;;14.40;99.90;;;;;;5053106;28;20182;-66
2023/09/03 02:31:03;;;;;;;3.50;3.20;;;14.40;99.90;;;;;;5053263;28;20171;-66
2023/09/03 02:33:29;;;;;;;5.90;4.00;;;14.40;99.90;;;;;;5053537;28;20631;-65
2023/09/03 02:35:55;;;;;;;4.70;4.00;;;14.40;99.90;;;;;;5039468;28;20564;-74
2023/09/03 02:38:20;;;;;;;4.67;3.70;;;14.50;99.90;;;;;;5033141;28;21119;-65
2023/09/03 02:40:46;;;;;;;6.50;4.57;;;14.40;99.90;;;;;;5042298;28;20631;-66
2023/09/03 02:43:13;;;;;;;3.97;3.60;;;14.50;99.90;;;;;;5053225;28;20170;-74
2023/09/03 02:45:39;;;;;;;3.60;3.30;;;14.50;99.90;;;;;;5051777;28;20175;-74
2023/09/03 02:48:06;;;;;;;5.63;2.80;;;14.40;99.90;;;;;;5052562;28;20428;-66
2023/09/03 02:50:34;;;;;;;4.57;3.40;;;14.30;99.90;;;;;;5053082;28;20269;-69
2023/09/03 02:52:59;;;;;;;4.47;3.20;;;14.30;99.90;;;;;;5039415;28;20795;-74
2023/09/03 02:55:25;;;;;;;3.47;3.17;;;14.40;99.90;;;;;;5033104;28;20430;-74
2023/09/03 02:57:51;;;;;;;5.20;3.00;;;14.30;99.90;;;;;;5032930;28;20294;-74
2023/09/03 03:00:18;;;;;;;6.47;3.07;;;14.30;99.90;;;;;;5032996;28;20222;-68
2023/09/03 03:02:44;;;;;;;3.40;3.20;;;14.30;99.90;;;;;;5033108;28;20166;-68
2023/09/03 03:05:10;;;;;;;4.70;2.77;;;14.40;99.90;;;;;;5031651;28;20495;-65
2023/09/03 03:07:38;;;;;;;4.23;3.07;;;14.30;99.90;;;;;;5033612;28;20457;-70
2023/09/03 03:10:04;;;;;;;3.30;2.80;;;14.40;99.90;;;;;;5033090;28;20388;-66
2023/09/03 03:12:29;;;;;;;2.80;2.60;;;14.40;99.90;;;;;;5032872;28;20414;-66
2023/09/03 03:14:55;;;;;;;2.90;2.70;;;14.30;99.90;;;;;;5032678;28;20451;-73
2023/09/03 03:17:21;;;;;;;3.07;2.87;;;14.30;99.90;;;;;;5046489;28;20234;-65
2023/09/03 03:19:50;;;;;;;3.00;2.83;;;14.30;99.90;;;;;;5052851;28;20166;-68
2023/09/03 03:22:16;;;;;;;4.70;3.23;;;14.30;99.90;;;;;;5052737;28;20194;-73
2023/09/03 03:24:41;;;;;;;2.97;2.77;;;14.30;99.90;;;;;;5034530;28;20493;-74
2023/09/03 03:27:08;;;;;;;2.53;2.33;;;14.20;99.90;;;;;;5030839;28;20175;-66
2023/09/03 03:29:34;;;;;;;2.90;2.60;;;14.20;99.90;;;;;;5031844;28;20171;-66
2023/09/03 03:32:00;;;;;;;7.23;2.80;;;14.20;99.90;;;;;;5032912;28;20560;-66
2023/09/03 03:34:26;;;;;;;2.93;2.53;;;14.20;99.90;;;;;;5032757;28;20172;-66
2023/09/03 03:36:54;;;;;;;2.73;2.40;;;14.20;99.90;;;;;;5031323;28;20525;-68
2023/09/03 03:39:21;;;;;;;2.67;2.47;;;14.10;99.90;;;;;;5052445;28;20547;-66
2023/09/03 03:41:47;;;;;;;4.73;2.73;;;14.10;99.90;;;;;;5052249;28;20406;-72
2023/09/03 03:44:13;;;;;;;3.20;3.00;;;14.10;99.90;;;;;;5051057;28;20417;-65
2023/09/03 03:46:39;;;;;;;2.90;2.70;;;14.10;99.90;;;;;;5051645;28;20175;-66
2023/09/03 03:49:04;;;;;;;3.17;2.97;;;14.10;99.90;;;;;;5051445;28;20233;-74
2023/09/03 03:51:30;;;;;;;2.50;2.30;;;14.10;99.90;;;;;;5052410;28;20222;-67
2023/09/03 03:53:59;;;;;;;2.90;2.60;;;14.10;99.90;;;;;;5049678;28;20592;-74
2023/09/03 03:56:24;;;;;;;5.83;2.47;;;14.10;99.90;;;;;;5051821;28;20477;-66
2023/09/03 03:58:50;;;;;;;3.33;2.30;;;14.10;99.90;;;;;;5056147;28;21188;-66
2023/09/03 04:01:20;;;;;;;6.20;3.00;;;14.10;99.90;;;;;;5044156;28;20183;-66
2023/09/03 04:03:47;;;;;;;2.93;2.60;;;14.10;99.90;;;;;;5036249;28;20163;-73
2023/09/03 04:06:14;;;;;;;12.30;2.83;;;14.00;99.90;;;;;;5039125;28;20421;-73
2023/09/03 04:08:43;;;;;;;4.07;3.20;;;14.00;99.90;;;;;;5055990;28;20425;-73
2023/09/03 04:11:10;;;;;;;3.80;3.37;;;14.00;99.90;;;;;;5056014;28;20409;-65
2023/09/03 04:13:37;;;;;;;3.40;3.10;;;14.00;99.90;;;;;;5056012;28;20542;-69
2023/09/03 04:16:09;;;;;;;4.60;3.10;;;14.00;99.90;;;;;;5053921;28;20905;-73
2023/09/03 04:18:36;;;;;;;3.20;2.63;;;14.10;99.90;;;;;;5053931;28;20910;-65
2023/09/03 04:21:02;;;;;;;2.70;2.30;;;14.10;99.90;;;;;;5052493;28;20503;-74
2023/09/03 04:23:28;;;;;;;2.97;2.77;;;14.10;99.90;;;;;;5038403;28;20468;-73
2023/09/03 04:25:56;;;;;;;2.33;2.20;;;14.10;99.90;;;;;;5034961;28;20398;-74
2023/09/03 04:28:23;;;;;;;3.87;2.77;;;14.10;99.90;;;;;;5035782;28;20790;-68
2023/09/03 04:30:56;;;;;;;3.80;2.63;;;14.10;99.90;;;;;;5035747;28;20922;-65
2023/09/03 04:33:23;;;;;;;2.70;2.50;;;14.10;99.90;;;;;;5034210;28;20970;-69
2023/09/03 04:35:55;;;;;;;2.83;2.50;;;14.00;99.90;;;;;;5034229;28;20429;-74
2023/09/03 04:38:21;;;;;;;5.57;2.87;;;14.00;99.90;;;;;;5035490;28;20996;-73
2023/09/03 04:40:47;;;;;;;3.00;2.80;;;14.00;99.90;;;;;;5035726;28;20422;-73
2023/09/03 04:43:13;;;;;;;2.33;2.13;;;14.00;99.90;;;;;;5034157;28;20406;-73
2023/09/03 04:45:51;;;;;;;2.27;2.17;;;14.00;99.90;;;;;;5034595;28;20456;-70
2023/09/03 04:48:18;;;;;;;3.00;2.50;;;14.00;99.90;;;;;;5033897;28;20454;-67
2023/09/03 04:50:44;;;;;;;4.77;2.60;;;13.90;99.90;;;;;;5037551;28;20416;-66
2023/09/03 04:53:12;;;;;;;2.60;2.37;;;14.00;99.90;;;;;;5034906;28;20406;-74
2023/09/03 04:55:38;;;;;;;3.17;2.97;;;14.00;99.90;;;;;;5034129;28;20164;-74
2023/09/03 04:58:04;;;;;;;3.43;3.13;;;14.00;99.90;;;;;;5035155;28;20898;-74
2023/09/03 05:00:30;;;;;;;3.00;2.50;;;14.00;99.90;;;;;;5033880;28;20437;-66
2023/09/03 05:02:56;;;;;;;3.07;1.97;;;14.10;99.90;;;;;;5036034;28;20545;-67
2023/09/03 05:05:22;;;;;;;3.30;2.23;;;14.00;99.90;;;;;;5034335;28;20173;-67
2023/09/03 05:07:48;;;;;;;3.63;2.53;;;14.10;99.90;;;;;;5035016;28;20419;-73
2023/09/03 05:10:14;;;;;;;2.27;2.13;;;14.10;99.90;;;;;;5033910;28;20167;-69
2023/09/03 05:12:43;;;;;;;3.87;2.63;;;14.10;99.90;;;;;;5034494;28;20260;-71
2023/09/03 05:15:13;;;;;;;2.60;2.40;;;14.10;99.90;;;;;;5034019;28;20751;-73
2023/09/03 05:17:39;;;;;;;2.93;2.27;;;14.10;99.90;;;;;;5034709;28;20464;-73
2023/09/03 05:20:06;;;;;;;2.70;2.50;;;14.10;99.90;;;;;;5044475;28;20430;-65
2023/09/03 05:22:31;;;;;;;2.33;2.23;;;14.00;99.90;;;;;;5044915;28;20473;-74
2023/09/03 05:24:57;;;;;;;5.03;2.33;;;14.00;99.90;;;;;;5054468;28;20486;-73
2023/09/03 05:27:23;;;;;;;3.27;2.90;;;14.00;99.90;;;;;;5053853;28;20277;-73
2023/09/03 05:29:48;;;;;;;3.00;2.77;;;14.10;99.90;;;;;;5054383;28;20178;-73
2023/09/03 05:32:14;;;;;;;3.67;2.67;;;14.00;99.90;;;;;;5054090;28;20689;-66
2023/09/03 05:34:40;;;;;;;5.13;3.00;;;14.10;99.90;;;;;;5052987;28;20185;-73
2023/09/03 05:37:05;;;;;;;4.10;3.27;;;14.10;99.90;;;;;;5053338;28;20194;-66
2023/09/03 05:39:31;;;;;;;3.33;3.03;;;14.10;99.90;;;;;;5054495;28;20175;-67
2023/09/03 05:41:57;;;;;;;4.73;2.53;;;14.10;99.90;;;;;;5054237;28;20175;-66
2023/09/03 05:44:23;;;;;;;2.80;2.60;;;14.10;99.90;;;;;;5054155;28;20485;-66
2023/09/03 05:46:49;;;;;;;7.07;2.53;;;14.20;99.90;;;;;;5044574;28;20190;-67
2023/09/03 05:49:15;;;;;;;2.73;2.53;;;14.20;99.90;;;;;;5042520;28;20445;-66
2023/09/03 05:51:41;;;;;;;2.30;2.10;;;14.30;99.90;;;;;;5054001;28;20270;-67
2023/09/03 05:54:07;;;;;;;4.03;2.50;;;14.30;99.90;;;;;;5054309;28;20162;-65
2023/09/03 05:56:35;;;;;;;2.73;2.53;;;14.30;99.90;;;;;;5053167;28;20645;-67
2023/09/03 05:59:05;;;;;;;6.10;2.70;;;14.40;99.90;;;;;;5053857;28;20445;-66
2023/09/03 06:01:32;;;;;;;5.63;2.90;;;14.30;99.90;;;;;;5040676;28;20466;-73
2023/09/03 06:04:02;;;;;;;4.77;3.10;;;14.40;99.90;;;;;;5038121;28;20421;-74
2023/09/03 06:06:28;;;;;;;8.63;2.80;;;14.40;99.90;;;;;;5052638;28;20404;-72
2023/09/03 06:08:54;;;;;;;9.70;3.20;;;14.40;99.90;;;;;;5053814;28;20425;-70
2023/09/03 06:11:20;;;;;;;3.90;2.90;;;14.40;99.90;;;;;;5053846;28;20389;-66
2023/09/03 06:13:46;;;;;;;4.13;2.80;;;14.40;99.90;;;;;;5035615;28;20183;-65
2023/09/03 06:16:11;;;;;;;2.80;2.60;;;14.30;99.90;;;;;;5033019;28;20894;-71
2023/09/03 06:18:37;;;;;;;4.87;2.50;;;14.40;99.90;;;;;;5031871;28;20199;-69
2023/09/03 06:21:03;;;;;;;2.07;1.97;;;14.40;99.90;;;;;;5032736;28;20164;-68
2023/09/03 06:23:29;;;;;;;2.67;2.17;;;14.50;99.90;;;;;;5031878;28;20505;-74
2023/09/03 06:25:54;;;;;;;2.63;2.43;;;14.50;99.90;;;;;;5034335;28;20190;-66
2023/09/03 06:28:20;;;;;;;4.73;2.20;;;14.50;99.90;;;;;;5053382;28;20202;-68
2023/09/03 06:30:46;;;;;;;6.33;2.27;;;14.60;99.90;;;;;;5053638;28;20182;-74
2023/09/03 06:33:12;;;;;;;3.40;2.70;;;14.60;99.90;;;;;;5053430;28;20209;-65
2023/09/03 06:35:37;;;;;;;2.07;1.93;;;14.60;99.90;;;;;;5043867;28;20262;-74
2023/09/03 06:38:03;;;;;;;6.30;2.10;;;14.70;99.90;;;;;;5044503;28;20547;-74
2023/09/03 06:40:29;;;;;;;2.50;2.30;;;14.60;99.90;;;;;;5032733;28;20651;-65
2023/09/03 06:42:55;;;;;;;2.00;1.90;;;14.70;99.90;;;;;;5034553;28;20164;-72
2023/09/03 06:45:21;;;;;;;5.90;2.20;;;14.80;99.90;;;;;;5031479;28;20413;-73
2023/09/03 06:47:46;;;;;;;13.47;2.47;;;14.80;99.90;;;;;;5033198;28;20187;-68
2023/09/03 06:50:13;;;;;;;2.53;2.33;;;15.00;99.90;;;;;;5035768;28;20195;-69
2023/09/03 06:52:39;;;;;;;2.93;2.30;;;15.00;99.90;;;;;;5033215;28;20171;-66
2023/09/03 06:55:05;;;;;;;3.00;2.40;;;15.10;99.90;;;;;;5031179;28;20530;-69
2023/09/03 06:57:32;;;;;;;2.30;2.10;;;15.10;99.90;;;;;;5031870;28;20203;-73
2023/09/03 06:59:57;;;;;;;3.17;1.97;;;15.10;99.90;;;;;;5032583;28;20444;-67
2023/09/03 07:02:25;;;;;;;5.47;1.90;;;15.20;99.90;;;;;;5032998;28;20410;-73
2023/09/03 07:04:50;;;;;;;3.80;2.20;;;15.30;99.90;;;;;;5032429;28;20183;-73
2023/09/03 07:07:16;;;;;;;2.47;2.20;;;15.40;99.90;;;;;;5032144;28;20402;-65
2023/09/03 07:09:42;;;;;;;2.57;2.00;;;15.50;99.90;;;;;;5032003;28;20659;-66
2023/09/03 07:12:07;;;;;;;2.80;2.10;;;15.60;99.90;;;;;;5033040;28;20172;-66
2023/09/03 07:14:34;;;;;;;2.37;2.17;;;15.70;99.90;;;;;;5032575;28;20285;-66
2023/09/03 07:17:01;;;;;;;1.80;1.70;;;15.80;99.90;;;;;;5030441;28;20374;-74
2023/09/03 07:19:28;;;;;;;2.90;2.27;;;15.80;99.90;;;;;;5032821;28;20951;-65
2023/09/03 07:21:54;;;;;;;3.40;2.57;;;15.90;99.90;;;;;;5040551;28;20509;-71
2023/09/03 07:24:19;;;;;;;3.60;2.50;;;16.00;99.90;;;;;;5048138;28;20505;-66
2023/09/03 07:26:45;;;;;;;2.70;2.43;;;16.20;99.90;;;;;;5031977;28;20725;-66
2023/09/03 07:29:12;;;;;;;2.40;2.30;;;16.30;99.90;;;;;;5032738;28;20195;-66
2023/09/03 07:31:41;;;;;;;4.20;1.97;;;16.40;99.90;;;;;;5033359;28;20246;-73
2023/09/03 07:34:13;;;;;;;4.43;1.90;;;16.50;99.90;;;;;;5036998;28;20540;-72
2023/09/03 07:36:39;;;;;;;5.63;3.43;;;16.50;99.90;;;;;;5035813;28;20741;-72
2023/09/03 07:39:06;;;;;;;4.93;1.93;;;16.60;99.90;;;;;;5035248;28;20619;-69
2023/09/03 07:41:32;;;;;;;2.37;2.10;;;16.50;99.90;;;;;;5036826;28;20430;-67
2023/09/03 07:43:59;;;;;;;2.83;2.50;;;16.60;99.90;;;;;;5036759;28;20398;-70
2023/09/03 07:46:25;;;;;;;4.07;3.33;;;16.70;99.90;;;;;;5037552;28;20428;-73
2023/09/03 07:48:51;;;;;;;2.60;2.40;;;16.80;99.90;;;;;;5036510;28;20497;-66
2023/09/03 07:51:19;;;;;;;4.43;2.10;;;16.90;99.90;;;;;;5036362;28;20870;-66
2023/09/03 07:53:45;;;;;;;2.30;2.00;;;17.00;99.90;;;;;;5035853;28;20163;-65
2023/09/03 07:56:10;;;;;;;2.43;2.23;;;17.20;99.90;;;;;;5034275;28;20937;-67
2023/09/03 07:58:38;;;;;;;1.87;1.77;;;17.40;99.90;;;;;;5036129;28;20468;-66
2023/09/03 08:01:04;;;;;;;3.40;1.93;;;17.60;99.90;;;;;;5035751;28;20204;-72
2023/09/03 08:03:34;;;;;;;5.33;2.40;;;17.70;94.80;;;;;;5037343;28;20873;-66
2023/09/03 08:06:01;;;;;;;2.10;2.00;;;17.70;94.80;;;;;;5035430;28;20456;-73
2023/09/03 08:08:27;;;;;;;4.37;2.50;;;17.70;94.80;;;;;;5035169;28;20476;-73
2023/09/03 08:10:54;;;;;;;2.80;2.17;;;17.60;76.50;;;;;;5035532;28;20905;-70
2023/09/03 08:13:19;;;;;;;2.43;1.90;;;17.60;65.10;;;;;;5039194;28;20432;-73
2023/09/03 08:15:45;;;;;;;2.53;2.33;;;17.60;60.50;;;;;;5055126;28;20489;-67
2023/09/03 08:18:11;;;;;;;3.67;2.27;;;17.50;59.00;;;;;;5040520;28;20215;-68
2023/09/03 08:20:36;;;;;;;5.70;2.47;;;17.60;71.10;;;;;;5036002;28;20681;-66
2023/09/03 08:23:02;;;;;;;2.87;2.23;;;17.70;70.20;;;;;;5035866;28;20163;-68
2023/09/03 08:25:29;;;;;;;2.60;1.80;;;17.70;54.90;;;;;;5035196;28;20159;-65
2023/09/03 08:27:55;;;;;;;2.57;2.37;;;17.80;50.80;;;;;;5035248;28;20664;-66
2023/09/03 08:30:20;;;;;;;3.83;2.40;;;17.80;43.50;;;;;;5036032;28;20430;-73
2023/09/03 08:32:46;;;;;;;1.80;1.70;;;17.90;42.30;;;;;;5036336;28;20648;-71
2023/09/03 08:35:12;;;;;;;3.60;2.20;;;18.00;41.40;;;;;;5033308;28;20171;-66
2023/09/03 08:37:38;;;;;;;2.53;2.30;;;18.10;37.70;;;;;;5035604;28;20757;-67
2023/09/03 08:40:04;;;;;;;2.30;2.10;;;18.30;40.10;;;;;;5035759;28;20169;-73
2023/09/03 08:42:31;;;;;;;2.40;2.07;;;18.50;43.50;;;;;;5035674;28;20253;-66
2023/09/03 08:45:10;;;;;;;13.37;2.40;;;18.80;20.90;;;;;;5032983;28;20414;-73
2023/09/03 08:47:40;;;;;;;2.37;2.17;;;18.80;1.00;;;;;;5036629;28;20453;-73
2023/09/03 08:50:08;;;;;;;3.63;3.00;;;18.90;1.00;;;;;;5035559;28;20779;-73
2023/09/03 08:52:37;;;;;;;3.00;2.37;;;19.00;1.00;;;;;;5035384;28;20403;-74
2023/09/03 08:55:04;;;;;;;3.63;2.40;;;19.10;1.00;;;;;;5034554;28;20409;-73
2023/09/03 08:57:30;;;;;;;2.30;2.03;;;19.10;1.00;;;;;;5034035;28;20504;-73
2023/09/03 08:59:56;;;;;;;3.00;2.30;;;19.30;1.00;;;;;;5035226;28;20402;-67
2023/09/03 09:02:25;;;;;;;2.67;1.90;;;19.30;1.00;;;;;;5035054;28;20425;-73
2023/09/03 09:04:50;;;;;;;3.80;2.40;;;19.50;1.00;;;;;;5033540;28;20413;-66
2023/09/03 09:07:18;;;;;;;4.93;2.20;;;19.60;1.00;;;;;;5034102;28;20489;-65
2023/09/03 09:09:46;;;;;;;3.10;1.70;;;19.70;1.00;;;;;;5035057;28;20215;-65
2023/09/03 09:12:27;;;;;;;7.73;2.20;;;19.80;1.00;;;;;;5035040;28;20414;-73
2023/09/03 09:14:59;;;;;;;2.70;2.17;;;20.10;1.00;;;;;;5034402;28;20434;-68
2023/09/03 09:17:25;;;;;;;2.07;1.97;;;20.20;1.00;;;;;;5034253;28;20446;-74
2023/09/03 09:19:51;;;;;;;2.23;2.03;;;20.40;1.00;;;;;;5034898;28;20564;-65
2023/09/03 09:22:17;;;;;;;2.80;1.70;;;20.60;1.00;;;;;;5034762;28;20163;-73
2023/09/03 09:24:46;;;;;;;2.73;1.87;;;20.80;1.00;;;;;;5034292;28;20422;-67
2023/09/03 09:27:19;;;;;;;2.00;1.80;;;21.10;1.00;;;;;;5033692;28;20213;-74
2023/09/03 09:29:46;;;;;;;4.47;2.00;;;21.20;1.00;;;;;;5035894;28;20459;-72
2023/09/03 09:32:23;;;;;;;2.53;2.30;;;21.10;1.00;;;;;;5044541;28;20429;-68
2023/09/03 09:34:49;;;;;;;2.27;2.07;;;21.00;1.00;;;;;;5054641;28;20401;-65
2023/09/03 09:37:16;;;;;;;2.30;1.97;;;21.10;1.00;;;;;;5053515;28;20474;-73
2023/09/03 09:39:49;;;;;;;1.77;1.67;;;21.30;1.00;;;;;;5054313;28;20417;-66
2023/09/03 09:42:18;;;;;;;2.63;1.60;;;21.60;1.00;;;;;;5054458;28;20397;-69
2023/09/03 09:44:53;;;;;;;2.90;1.87;;;21.90;1.00;;;;;;5048652;28;20502;-65
2023/09/03 09:47:20;;;;;;;6.83;2.03;;;22.10;1.00;;;;;;5053594;28;20405;-73
2023/09/03 09:49:46;;;;;;;1.53;1.17;;;22.00;1.00;;;;;;5054042;28;20405;-66
2023/09/03 09:52:15;;;;;;;3.00;1.60;;;22.00;1.00;;;;;;5054357;28;20428;-68
2023/09/03 09:54:42;;;;;;;4.87;2.03;;;22.10;1.00;;;;;;5052985;28;20425;-72
2023/09/03 09:57:16;;;;;;;3.53;1.83;;;22.20;1.00;;;;;;5041059;28;20437;-73
2023/09/03 09:59:43;;;;;;;1.73;1.63;;;22.10;1.00;;;;;;5034577;28;20451;-67
2023/09/03 10:02:15;;;;;;;2.33;2.10;;;21.90;1.00;;;;;;5032399;28;20780;-72
2023/09/03 10:04:46;;;;;;;5.23;1.80;;;22.00;1.00;;;;;;5034147;28;20391;-72
2023/09/03 10:07:12;;;;;;;1.90;1.43;;;22.40;1.00;;;;;;5038116;28;20435;-66
2023/09/03 10:09:39;;;;;;;1.53;1.43;;;22.90;1.00;;;;;;5042043;28;20460;-65
2023/09/03 10:12:06;;;;;;;2.37;1.60;;;23.30;1.00;;;;;;5034011;28;20460;-65
2023/09/03 10:14:32;;;;;;;4.00;1.87;;;23.30;1.00;;;;;;5034177;28;20434;-72
2023/09/03 10:17:00;;;;;;;2.00;1.77;;;23.00;1.00;;;;;;5032814;28;20405;-65
2023/09/03 10:19:28;;;;;;;3.20;2.10;;;22.50;1.00;;;;;;5033365;28;20449;-66
2023/09/03 10:22:02;;;;;;;5.83;2.73;;;22.20;1.00;;;;;;5032985;28;21202;-65
2023/09/03 10:24:30;;;;;;;8.20;5.23;;;22.30;1.00;;;;;;5033686;28;20874;-72
2023/09/03 10:26:59;;;;;;;7.57;5.07;;;22.40;1.00;;;;;;5032815;28;20407;-68
2023/09/03 10:29:27;;;;;;;3.67;2.40;;;22.70;1.00;;;;;;5033012;28;20450;-66
2023/09/03 10:31:54;;;;;;;5.37;2.03;;;23.00;1.00;;;;;;5032416;28;20410;-72
2023/09/03 10:34:20;;;;;;;4.10;1.70;;;23.20;1.00;;;;;;5033486;28;20465;-65
2023/09/03 10:37:06;;;;;;;4.70;1.90;;;23.20;1.00;;;;;;5032646;28;20403;-66
2023/09/03 10:39:33;;;;;;;8.17;1.77;;;22.80;1.00;;;;;;5052962;28;20412;-71
2023/09/03 10:42:17;;;;;;;2.40;2.00;;;22.70;1.00;;;;;;5053175;28;20398;-68
2023/09/03 10:44:58;;;;;;;1.97;1.77;;;22.40;1.00;;;;;;5048817;28;20430;-66
2023/09/03 10:47:23;;;;;;;2.60;1.50;;;22.20;1.00;;;;;;5032914;28;20446;-69
2023/09/03 10:49:51;;;;;;;1.73;1.63;;;22.30;1.00;;;;;;5033095;28;20475;-71
2023/09/03 10:52:30;;;;;;;3.33;2.10;;;22.20;1.00;;;;;;5050368;28;20592;-66
2023/09/03 10:55:20;;;;;;;4.97;1.70;;;22.00;1.00;;;;;;5052168;28;20415;-72
2023/09/03 10:58:17;;;;;;;2.80;1.70;;;21.90;1.00;;;;;;5052806;28;20479;-70
2023/09/03 11:01:22;;;;;;;2.60;1.53;;;22.00;1.00;;;;;;5038891;28;20799;-72
2023/09/03 11:03:50;;;;;;;3.27;1.53;;;22.40;1.00;;;;;;5039231;28;20745;-66
2023/09/03 11:06:19;;;;;;;2.77;1.60;;;22.80;1.00;;;;;;5030295;28;20421;-72
2023/09/03 11:08:46;;;;;;;2.97;2.00;;;22.90;1.00;;;;;;5033066;28;20436;-66
2023/09/03 11:11:19;;;;;;;2.93;1.57;;;22.90;1.00;;;;;;5032844;28;20410;-72
2023/09/03 11:13:50;;;;;;;2.43;1.93;;;22.80;1.00;;;;;;5032201;28;20433;-72
2023/09/03 11:16:16;;;;;;;2.63;2.43;;;22.80;1.00;;;;;;5031983;28;20413;-66
2023/09/03 11:18:51;;;;;;;2.50;2.30;;;22.50;1.00;;;;;;5032870;28;20462;-72
2023/09/03 11:21:16;;;;;;;2.23;1.40;;;22.50;1.00;;;;;;5033362;28;20225;-73
2023/09/03 11:24:03;;;;;;;2.03;1.60;;;22.60;1.00;;;;;;5052716;28;20390;-66
2023/09/03 11:26:33;;;;;;;2.67;2.40;;;22.70;1.00;;;;;;5051720;28;20175;-69
2023/09/03 11:29:02;;;;;;;5.10;4.47;;;23.00;1.00;;;;;;5046433;28;20449;-66
2023/09/03 11:31:28;;;;;;;1.80;1.70;;;22.90;1.00;;;;;;5032374;28;20402;-65
2023/09/03 11:33:55;;;;;;;3.60;2.20;;;22.70;1.00;;;;;;5032798;28;20406;-72
2023/09/03 11:36:24;;;;;;;3.40;2.33;;;22.60;1.00;;;;;;5031776;28;20168;-69
2023/09/03 11:38:51;;;;;;;2.40;1.90;;;22.50;1.00;;;;;;5032128;28;20454;-71
2023/09/03 11:41:19;;;;;;;2.90;2.70;;;22.50;1.00;;;;;;5032736;28;20489;-66
2023/09/03 11:43:46;;;;;;;2.00;1.80;;;22.40;1.00;;;;;;5032309;28;20902;-72
2023/09/03 11:46:17;;;;;;;1.77;1.67;;;22.40;1.00;;;;;;5051631;28;20435;-67
2023/09/03 11:48:53;;;;;;;3.07;2.00;;;22.50;1.00;;;;;;5050995;28;20448;-72
2023/09/03 11:51:26;;;;;;;2.13;1.40;;;22.80;1.00;;;;;;5052305;28;20417;-67
2023/09/03 11:53:52;;;;;;;2.03;1.80;;;22.90;1.00;;;;;;5043282;28;20438;-68
2023/09/03 11:56:21;;;;;;;1.67;1.47;;;22.80;1.00;;;;;;5031664;28;20406;-65
2023/09/03 11:58:56;;;;;;;1.70;1.50;;;23.00;1.00;;;;;;5032427;28;20460;-68
2023/09/03 12:01:23;;;;;;;2.37;1.70;;;22.90;1.00;;;;;;5032213;28;20453;-72
2023/09/03 12:03:49;;;;;;;3.47;1.50;;;22.70;1.00;;;;;;5030849;28;20476;-66
2023/09/03 12:06:18;;;;;;;1.93;1.60;;;22.60;1.00;;;;;;5029968;28;20407;-72
2023/09/03 12:08:44;;;;;;;1.73;1.63;;;22.30;1.00;;;;;;5032428;28;20437;-70
2023/09/03 12:11:10;;;;;;;4.20;1.63;;;22.20;1.00;;;;;;5048270;28;20429;-71
2023/09/03 12:13:39;;;;;;;2.27;2.07;;;22.20;1.00;;;;;;5052205;28;20405;-67
2023/09/03 12:16:14;;;;;;;4.10;1.50;;;22.30;1.00;;;;;;5035652;28;20464;-68
2023/09/03 12:18:57;;;;;;;3.40;3.10;;;22.50;1.00;;;;;;5034252;28;20988;-66
2023/09/03 12:21:33;;;;;;;3.20;2.90;;;22.60;1.00;;;;;;5036047;28;20406;-68
2023/09/03 12:24:02;;;;;;;3.20;3.00;;;22.60;1.00;;;;;;5035480;28;20468;-72
2023/09/03 12:26:28;;;;;;;2.13;1.80;;;22.60;1.00;;;;;;5044545;28;20910;-69
2023/09/03 12:28:54;;;;;;;5.20;2.60;;;22.60;1.00;;;;;;5055596;28;20424;-68
2023/09/03 12:31:25;;;;;;;2.40;2.20;;;22.30;1.00;;;;;;5040220;28;20180;-71
2023/09/03 12:33:50;;;;;;;2.20;1.97;;;22.20;1.00;;;;;;5049878;28;20463;-66
2023/09/03 12:36:20;;;;;;;1.77;1.43;;;22.10;1.00;;;;;;5052161;28;20398;-67
2023/09/03 12:38:54;;;;;;;2.20;2.00;;;22.10;1.00;;;;;;5035515;28;20468;-71
2023/09/03 12:41:28;;;;;;;3.00;1.33;;;22.40;1.00;;;;;;5034390;28;20425;-72
2023/09/03 12:44:07;;;;;;;1.60;1.50;;;23.00;1.00;;;;;;5034523;28;20946;-66
2023/09/03 12:46:34;;;;;;;1.97;1.10;;;23.50;1.00;;;;;;5034647;28;20736;-67
2023/09/03 12:49:01;;;;;;;1.70;1.50;;;23.70;1.00;;;;;;5035233;28;20422;-72
2023/09/03 12:51:27;;;;;;;6.27;3.83;;;23.80;1.00;;;;;;5053933;28;20444;-74
2023/09/03 12:53:52;;;;;;;1.63;1.13;;;23.80;1.00;;;;;;5055347;28;20401;-75
2023/09/03 12:56:18;;;;;;;1.50;1.00;;;23.90;1.00;;;;;;5053446;28;20182;-72